SCAR METAR and TAF weather

Enter ICAO airport designator
Station Type Date Time Source
SCAR METAR 2020/04/05 07:00 UTC NOAA

SCAR 050700Z 00000KT 9999 BKN030 22/16 Q1010


Station Type Date Time Source
SCAR Decoded METAR 2020/04/05 07:00 UTC NOAA

Arica, Chile (SCAR) 18-20S 070-20W 58M
Apr 05, 2020 - 03:00 AM EDT / 2020.04.05 0700 UTC
Wind: Calm:0
Visibility: greater than 7 mile(s):0
Sky conditions: mostly cloudy
Temperature: 71 F (22 C)
Dew Point: 60 F (16 C)
Relative Humidity: 68%
Pressure (altimeter): 29.83 in. Hg (1010 hPa)
ob: SCAR 050700Z 00000KT 9999 BKN030 22/16 Q1010
cycle: 7

Station Type Date Time Source
SCAR TAF 2020/04/05 06:07 UTC NOAA

TAF SCAR 050406Z 0506/0606 18004KT 9999 BKN035 TN21/0508Z TX25/0518Z
BECMG 0506/0508 12004KT CAVOK
BECMG 0514/0516 21012KT
BECMG 0522/0524 17004KT
BECMG 0604/0606 10004KT

Example: see airport list